Time;durP1;ratioP1;P1;durP2;ratioP2;P2;SDS_P1;SDS_P2;PMS_P1;PMS_P2;Temp;Humidity;BMP_temperature;BMP_pressure;BME280_temperature;BME280_humidity;BME280_pressure;Samples;Min_cycle;Max_cycle;Signal;HPM_P1;HPM_P2
2023/01/20 00:01:13;;;;;;;22.37;13.57;;;3.00;99.90;;;;;;5056582;28;20470;-70
2023/01/20 00:03:40;;;;;;;18.80;12.00;;;3.00;99.90;;;;;;5056614;28;20545;-70
2023/01/20 00:06:07;;;;;;;18.63;13.10;;;3.00;99.90;;;;;;5055885;28;20933;-70
2023/01/20 00:08:34;;;;;;;19.03;11.70;;;3.00;99.90;;;;;;5059930;28;20458;-69
2023/01/20 00:11:05;;;;;;;20.43;12.47;;;3.00;99.90;;;;;;5060494;28;20864;-69
2023/01/20 00:13:32;;;;;;;18.67;13.00;;;3.00;99.90;;;;;;5060427;28;20528;-69
2023/01/20 00:16:01;;;;;;;22.57;13.90;;;2.90;99.90;;;;;;5060029;28;20549;-68
2023/01/20 00:18:29;;;;;;;20.90;13.53;;;2.90;99.90;;;;;;5059660;28;20542;-68
2023/01/20 00:20:56;;;;;;;24.40;13.80;;;2.90;99.90;;;;;;5059725;28;20943;-69
2023/01/20 00:23:23;;;;;;;21.57;13.07;;;2.90;99.90;;;;;;5059388;28;20450;-69
2023/01/20 00:25:50;;;;;;;19.63;11.83;;;2.90;99.90;;;;;;5060108;28;20925;-69
2023/01/20 00:28:17;;;;;;;20.77;12.87;;;2.90;99.90;;;;;;5059753;28;20455;-70
2023/01/20 00:30:44;;;;;;;24.93;12.70;;;2.90;99.90;;;;;;5060024;28;20829;-69
2023/01/20 00:33:11;;;;;;;22.40;12.40;;;2.90;99.90;;;;;;5059686;28;20483;-69
2023/01/20 00:35:39;;;;;;;25.20;13.43;;;2.90;99.90;;;;;;5059396;28;20468;-69
2023/01/20 00:38:06;;;;;;;20.23;13.27;;;2.90;99.90;;;;;;5059359;28;20458;-70
2023/01/20 00:40:32;;;;;;;20.97;11.87;;;2.90;99.90;;;;;;5059527;28;20494;-69
2023/01/20 00:42:59;;;;;;;18.37;11.97;;;2.90;99.90;;;;;;5059487;28;20569;-69
2023/01/20 00:45:26;;;;;;;14.83;11.17;;;2.90;99.90;;;;;;5059419;28;20550;-69
2023/01/20 00:47:53;;;;;;;17.13;12.40;;;2.80;99.90;;;;;;5059284;28;20459;-69
2023/01/20 00:50:20;;;;;;;22.10;11.53;;;2.90;99.90;;;;;;5059018;28;20513;-69
2023/01/20 00:52:48;;;;;;;21.47;11.67;;;2.90;99.90;;;;;;5058416;28;20485;-69
2023/01/20 00:55:15;;;;;;;21.90;12.20;;;2.80;99.90;;;;;;5058521;28;20470;-70
2023/01/20 00:57:42;;;;;;;18.33;10.60;;;2.80;99.90;;;;;;5059160;28;20461;-69
2023/01/20 01:00:10;;;;;;;22.03;12.43;;;2.70;99.90;;;;;;5058299;28;20981;-70
2023/01/20 01:02:38;;;;;;;20.00;11.07;;;2.70;99.90;;;;;;5058415;28;20451;-69
2023/01/20 01:05:06;;;;;;;27.40;10.90;;;2.70;99.90;;;;;;5058588;28;20487;-70
2023/01/20 01:07:33;;;;;;;20.17;11.63;;;2.70;99.90;;;;;;5059350;28;20459;-67
2023/01/20 01:10:01;;;;;;;17.57;11.93;;;2.70;99.90;;;;;;5058521;28;20459;-69
2023/01/20 01:12:28;;;;;;;20.90;10.97;;;2.70;99.90;;;;;;5059052;28;20497;-70
2023/01/20 01:14:55;;;;;;;18.60;11.30;;;2.70;99.90;;;;;;5058436;28;20455;-68
2023/01/20 01:17:22;;;;;;;23.50;11.20;;;2.60;99.90;;;;;;5059079;28;20538;-68
2023/01/20 01:19:49;;;;;;;20.10;11.57;;;2.60;99.90;;;;;;5057595;28;20525;-67
2023/01/20 01:22:16;;;;;;;19.30;11.43;;;2.60;99.90;;;;;;5058335;28;20550;-70
2023/01/20 01:24:44;;;;;;;20.47;10.90;;;2.60;99.90;;;;;;5058049;28;20459;-70
2023/01/20 01:27:13;;;;;;;19.90;12.43;;;2.60;99.90;;;;;;5057988;28;20455;-68
2023/01/20 01:29:40;;;;;;;22.07;13.03;;;2.60;99.90;;;;;;5057712;28;20459;-68
2023/01/20 01:32:07;;;;;;;20.37;10.77;;;2.60;99.90;;;;;;5057701;28;20951;-69
2023/01/20 01:34:34;;;;;;;20.67;11.73;;;2.60;99.90;;;;;;5057727;28;20790;-69
2023/01/20 01:37:01;;;;;;;16.97;11.17;;;2.60;99.90;;;;;;5057507;28;20455;-70
2023/01/20 01:39:28;;;;;;;21.23;10.50;;;2.60;99.90;;;;;;5058176;28;20546;-69
2023/01/20 01:41:55;;;;;;;21.00;12.07;;;2.60;99.90;;;;;;5057655;28;20509;-69
2023/01/20 01:44:26;;;;;;;22.00;11.13;;;2.60;99.90;;;;;;5057630;28;20940;-68
2023/01/20 01:46:53;;;;;;;19.60;12.20;;;2.60;99.90;;;;;;5057733;28;20439;-70
2023/01/20 01:49:24;;;;;;;22.20;11.00;;;2.60;99.90;;;;;;5058512;28;20546;-69
2023/01/20 01:51:55;;;;;;;20.73;11.17;;;2.60;99.90;;;;;;5057931;28;20543;-69
2023/01/20 01:54:25;;;;;;;19.90;10.47;;;2.60;99.90;;;;;;5057804;28;20814;-69
2023/01/20 01:56:53;;;;;;;15.23;10.47;;;2.50;99.90;;;;;;5057939;28;20454;-69
2023/01/20 01:59:21;;;;;;;16.70;9.87;;;2.50;99.90;;;;;;5057323;28;20946;-69
2023/01/20 02:01:51;;;;;;;15.70;10.50;;;2.50;99.90;;;;;;5057590;28;20469;-69
2023/01/20 02:04:20;;;;;;;17.93;10.17;;;2.50;99.90;;;;;;5057232;28;20462;-69
2023/01/20 02:06:50;;;;;;;16.97;11.17;;;2.50;99.90;;;;;;5058174;28;20773;-69
2023/01/20 02:09:18;;;;;;;19.63;11.47;;;2.40;99.90;;;;;;5057400;28;20554;-69
2023/01/20 02:11:49;;;;;;;19.53;10.50;;;2.40;99.90;;;;;;5057775;28;20852;-69
2023/01/20 02:14:17;;;;;;;17.23;11.10;;;2.40;99.90;;;;;;5057510;28;20562;-69
2023/01/20 02:16:55;;;;;;;17.93;10.90;;;2.50;99.90;;;;;;5057048;28;20463;-68
2023/01/20 02:19:54;;;;;;;23.13;11.33;;;2.40;99.90;;;;;;5055931;28;20486;-71
2023/01/20 02:22:29;;;;;;;17.77;10.47;;;2.50;99.90;;;;;;5056584;28;20526;-69
2023/01/20 02:25:17;;;;;;;13.90;10.10;;;2.50;99.90;;;;;;5056637;28;20453;-69
2023/01/20 02:28:29;;;;;;;19.73;10.60;;;2.50;99.90;;;;;;5056757;28;20454;-69
2023/01/20 02:31:18;;;;;;;17.53;10.70;;;2.40;99.90;;;;;;5045260;28;20451;-69
2023/01/20 02:33:51;;;;;;;17.73;10.10;;;2.30;99.90;;;;;;5035857;28;20488;-69
2023/01/20 02:36:25;;;;;;;29.67;11.70;;;2.30;99.90;;;;;;5055699;28;20444;-68
2023/01/20 02:39:00;;;;;;;17.30;11.60;;;2.30;99.90;;;;;;5056612;28;20530;-68
2023/01/20 02:41:36;;;;;;;19.17;10.03;;;2.30;99.90;;;;;;5056263;28;20453;-70
2023/01/20 02:44:10;;;;;;;21.37;10.70;;;2.30;99.90;;;;;;5056570;28;20532;-69
2023/01/20 02:46:41;;;;;;;19.73;10.73;;;2.30;99.90;;;;;;5056118;28;20450;-69
2023/01/20 02:49:14;;;;;;;18.90;11.07;;;2.30;99.90;;;;;;5056057;28;20439;-69
2023/01/20 02:51:46;;;;;;;18.70;10.63;;;2.30;99.90;;;;;;5056527;28;20524;-69
2023/01/20 02:54:15;;;;;;;21.63;11.40;;;2.20;99.90;;;;;;5055941;28;21048;-69
2023/01/20 02:56:43;;;;;;;25.70;11.20;;;2.30;99.90;;;;;;5055604;28;20547;-68
2023/01/20 02:59:12;;;;;;;16.60;11.23;;;2.30;99.90;;;;;;5055385;28;20501;-68
2023/01/20 03:01:43;;;;;;;17.20;10.63;;;2.30;99.90;;;;;;5056535;28;20546;-68
2023/01/20 03:04:13;;;;;;;18.50;10.90;;;2.30;99.90;;;;;;5056117;28;20527;-68
2023/01/20 03:06:46;;;;;;;22.97;10.23;;;2.30;99.90;;;;;;5055844;28;20451;-68
2023/01/20 03:09:17;;;;;;;14.47;10.13;;;2.30;99.90;;;;;;5056155;28;20974;-68
2023/01/20 03:11:49;;;;;;;21.13;11.53;;;2.30;99.90;;;;;;5056453;28;20444;-69
2023/01/20 03:14:17;;;;;;;25.67;12.10;;;2.30;99.90;;;;;;5056442;28;20498;-69
2023/01/20 03:16:46;;;;;;;24.17;12.63;;;2.40;99.90;;;;;;5056933;28;20462;-69
2023/01/20 03:19:15;;;;;;;21.80;11.40;;;2.40;99.90;;;;;;5056350;28;20508;-69
2023/01/20 03:21:42;;;;;;;19.00;10.90;;;2.40;99.90;;;;;;5056363;28;20455;-69
2023/01/20 03:24:10;;;;;;;24.10;12.20;;;2.40;99.90;;;;;;5056153;28;20462;-69
2023/01/20 03:26:37;;;;;;;20.40;12.50;;;2.40;99.90;;;;;;5055593;28;20465;-69
2023/01/20 03:29:06;;;;;;;19.30;12.10;;;2.40;99.90;;;;;;5055842;28;20455;-69
2023/01/20 03:31:38;;;;;;;22.50;13.17;;;2.40;99.90;;;;;;5055481;28;20798;-69
2023/01/20 03:34:11;;;;;;;19.70;12.17;;;2.40;99.90;;;;;;5057795;28;20477;-69
2023/01/20 03:36:40;;;;;;;18.20;12.47;;;2.40;99.90;;;;;;5056589;28;20530;-69
2023/01/20 03:39:07;;;;;;;22.97;12.20;;;2.40;99.90;;;;;;5055711;28;20463;-68
2023/01/20 03:41:40;;;;;;;24.30;14.10;;;2.40;99.90;;;;;;5056654;28;20454;-69
2023/01/20 03:44:12;;;;;;;25.03;13.70;;;2.30;99.90;;;;;;5060267;28;20904;-68
2023/01/20 03:46:44;;;;;;;21.00;13.20;;;2.30;99.90;;;;;;5060437;28;20439;-69
2023/01/20 03:49:18;;;;;;;25.23;13.27;;;2.30;99.90;;;;;;5060117;28;20454;-69
2023/01/20 03:51:56;;;;;;;22.60;13.03;;;2.40;99.90;;;;;;5060230;28;20775;-69
2023/01/20 03:54:27;;;;;;;19.77;12.67;;;2.40;99.90;;;;;;5060468;28;20477;-69
2023/01/20 03:57:02;;;;;;;21.07;13.60;;;2.40;99.90;;;;;;5060187;28;20526;-69
2023/01/20 03:59:32;;;;;;;28.07;14.10;;;2.40;99.90;;;;;;5059865;28;20454;-69
2023/01/20 04:02:03;;;;;;;23.40;13.53;;;2.40;99.90;;;;;;5059671;28;20474;-68
2023/01/20 04:04:33;;;;;;;23.00;14.60;;;2.40;99.90;;;;;;5059599;28;20530;-69
2023/01/20 04:07:02;;;;;;;25.00;14.80;;;2.40;99.90;;;;;;5060068;28;20537;-69
2023/01/20 04:09:32;;;;;;;26.27;14.77;;;2.40;99.90;;;;;;5059158;28;20461;-69
2023/01/20 04:11:59;;;;;;;25.80;14.67;;;2.40;99.90;;;;;;5059037;28;20526;-69
2023/01/20 04:14:26;;;;;;;22.57;14.20;;;2.30;99.90;;;;;;5059868;28;20985;-69
2023/01/20 04:16:56;;;;;;;25.90;15.20;;;2.30;99.90;;;;;;5059604;28;20455;-69
2023/01/20 04:19:23;;;;;;;24.13;14.00;;;2.30;99.90;;;;;;5059883;28;20455;-69
2023/01/20 04:21:58;;;;;;;26.20;15.77;;;2.30;99.90;;;;;;5060266;28;20768;-68
2023/01/20 04:24:29;;;;;;;26.03;15.23;;;2.30;99.90;;;;;;5059900;28;20460;-69
2023/01/20 04:26:56;;;;;;;28.33;16.10;;;2.40;99.90;;;;;;5060396;28;20450;-69
2023/01/20 04:29:23;;;;;;;22.93;14.93;;;2.40;99.90;;;;;;5059897;28;20920;-69
2023/01/20 04:31:50;;;;;;;27.70;15.47;;;2.40;99.90;;;;;;5059903;28;20542;-69
2023/01/20 04:34:17;;;;;;;28.30;14.97;;;2.40;99.90;;;;;;5060565;28;20515;-67
2023/01/20 04:36:43;;;;;;;26.60;14.90;;;2.30;99.90;;;;;;5060713;28;20491;-69
2023/01/20 04:39:10;;;;;;;26.03;17.07;;;2.30;99.90;;;;;;5060411;28;20734;-68
2023/01/20 04:41:39;;;;;;;25.10;17.33;;;2.30;99.90;;;;;;5060289;28;20469;-69
2023/01/20 04:44:06;;;;;;;31.03;16.70;;;2.30;99.90;;;;;;5060026;28;20529;-69
2023/01/20 04:46:33;;;;;;;30.67;18.37;;;2.30;99.90;;;;;;5060290;28;20556;-68
2023/01/20 04:48:59;;;;;;;30.77;17.53;;;2.30;99.90;;;;;;5060713;28;20465;-67
2023/01/20 04:51:26;;;;;;;34.73;19.47;;;2.30;99.90;;;;;;5059778;28;20459;-68
2023/01/20 04:53:56;;;;;;;32.10;17.90;;;2.30;99.90;;;;;;5059445;28;21050;-70
2023/01/20 04:56:23;;;;;;;34.10;17.70;;;2.30;99.90;;;;;;5059731;28;20455;-69
2023/01/20 04:58:52;;;;;;;32.90;17.23;;;2.20;99.90;;;;;;5059714;28;20488;-68
2023/01/20 05:01:19;;;;;;;29.70;16.47;;;2.20;99.90;;;;;;5060073;28;20553;-68
2023/01/20 05:03:46;;;;;;;30.70;16.87;;;2.20;99.90;;;;;;5059755;28;20461;-69
2023/01/20 05:06:13;;;;;;;28.80;17.27;;;2.30;99.90;;;;;;5059772;28;20469;-68
2023/01/20 05:08:40;;;;;;;33.00;17.67;;;2.30;99.90;;;;;;5059878;28;20455;-68
2023/01/20 05:11:07;;;;;;;31.07;18.00;;;2.30;99.90;;;;;;5060080;28;20461;-70
2023/01/20 05:13:37;;;;;;;32.07;17.27;;;2.30;99.90;;;;;;5060122;28;20963;-70
2023/01/20 05:16:06;;;;;;;29.97;16.83;;;2.30;99.90;;;;;;5059051;28;20874;-69
2023/01/20 05:18:33;;;;;;;28.03;17.47;;;2.40;99.90;;;;;;5059292;28;20451;-70
2023/01/20 05:21:02;;;;;;;29.30;17.43;;;2.30;99.90;;;;;;5058463;28;20459;-69
2023/01/20 05:23:29;;;;;;;29.17;16.80;;;2.20;99.90;;;;;;5059084;28;20459;-69
2023/01/20 05:25:56;;;;;;;28.33;16.40;;;2.20;99.90;;;;;;5059104;28;20459;-69
2023/01/20 05:28:23;;;;;;;35.60;17.27;;;2.20;99.90;;;;;;5059259;28;20920;-69
2023/01/20 05:30:50;;;;;;;27.67;16.40;;;2.20;99.90;;;;;;5059076;28;20550;-69
2023/01/20 05:33:19;;;;;;;31.00;17.50;;;2.20;99.90;;;;;;5059904;28;20454;-70
2023/01/20 05:35:45;;;;;;;29.87;19.13;;;2.20;99.90;;;;;;5058733;28;20507;-69
2023/01/20 05:38:12;;;;;;;33.10;19.57;;;2.20;99.90;;;;;;5058818;28;20547;-70
2023/01/20 05:40:39;;;;;;;34.27;18.70;;;2.20;99.90;;;;;;5059228;28;20463;-70
2023/01/20 05:43:06;;;;;;;31.83;19.30;;;2.20;99.90;;;;;;5059280;28;20585;-69
2023/01/20 05:45:33;;;;;;;31.10;18.63;;;2.20;99.90;;;;;;5059336;28;20530;-69
2023/01/20 05:48:02;;;;;;;34.90;18.77;;;2.10;99.90;;;;;;5058782;28;20779;-70
2023/01/20 05:50:30;;;;;;;29.33;18.63;;;2.10;99.90;;;;;;5058380;28;20477;-69
2023/01/20 05:52:57;;;;;;;33.80;20.77;;;2.00;99.90;;;;;;5058772;28;20856;-68
2023/01/20 05:55:24;;;;;;;33.27;19.50;;;2.00;99.90;;;;;;5058859;28;20479;-69
2023/01/20 05:57:50;;;;;;;36.87;21.40;;;2.00;99.90;;;;;;5059661;28;20959;-69
2023/01/20 06:00:18;;;;;;;39.13;19.33;;;2.00;99.90;;;;;;5059188;28;21022;-68
2023/01/20 06:02:45;;;;;;;34.63;18.20;;;2.00;99.90;;;;;;5058787;28;20459;-69
2023/01/20 06:05:12;;;;;;;31.20;19.23;;;2.00;99.90;;;;;;5057429;28;20455;-68
2023/01/20 06:07:40;;;;;;;35.90;21.77;;;2.00;99.90;;;;;;5058544;28;20545;-68
2023/01/20 06:10:08;;;;;;;32.50;18.00;;;1.90;99.90;;;;;;5059040;28;20550;-69
2023/01/20 06:12:35;;;;;;;35.77;20.90;;;1.90;99.90;;;;;;5058265;28;20463;-69
2023/01/20 06:15:02;;;;;;;35.60;19.53;;;1.80;99.90;;;;;;5058285;28;20966;-69
2023/01/20 06:17:29;;;;;;;31.73;19.63;;;1.80;99.90;;;;;;5058543;28;20526;-69
2023/01/20 06:19:56;;;;;;;35.97;19.80;;;1.90;99.90;;;;;;5058239;28;20554;-69
2023/01/20 06:22:22;;;;;;;32.10;20.40;;;1.90;99.90;;;;;;5058379;28;20740;-69
2023/01/20 06:24:51;;;;;;;34.73;20.00;;;1.90;99.90;;;;;;5058480;28;20459;-69
2023/01/20 06:27:17;;;;;;;37.03;19.27;;;2.00;99.90;;;;;;5058470;28;20464;-68
2023/01/20 06:29:44;;;;;;;32.20;20.43;;;1.90;99.90;;;;;;5058965;28;20527;-69
2023/01/20 06:32:11;;;;;;;37.40;22.43;;;1.90;99.90;;;;;;5058243;28;20470;-69
2023/01/20 06:34:38;;;;;;;39.93;23.37;;;1.90;99.90;;;;;;5057731;28;20515;-70
2023/01/20 06:37:05;;;;;;;42.10;21.10;;;2.00;99.90;;;;;;5057933;28;20459;-69
2023/01/20 06:39:32;;;;;;;33.17;19.47;;;2.00;99.90;;;;;;5058054;28;20465;-70
2023/01/20 06:42:00;;;;;;;33.13;22.37;;;2.00;99.90;;;;;;5057297;28;20479;-69
2023/01/20 06:44:27;;;;;;;39.27;20.60;;;2.00;99.90;;;;;;5057495;28;20483;-70
2023/01/20 06:46:56;;;;;;;33.73;21.70;;;1.90;99.90;;;;;;5057738;28;20455;-70
2023/01/20 06:49:23;;;;;;;36.40;20.30;;;1.80;99.90;;;;;;5057643;28;20466;-69
2023/01/20 06:51:49;;;;;;;37.33;21.33;;;1.90;99.90;;;;;;5057082;28;20461;-69
2023/01/20 06:54:16;;;;;;;35.20;21.37;;;1.90;99.90;;;;;;5057739;28;20478;-69
2023/01/20 06:56:44;;;;;;;41.43;22.80;;;1.80;99.90;;;;;;5057685;28;20465;-69
2023/01/20 06:59:12;;;;;;;37.97;22.60;;;1.80;99.90;;;;;;5058113;28;20471;-69
2023/01/20 07:01:40;;;;;;;39.20;21.50;;;1.80;99.90;;;;;;5058402;28;20463;-69
2023/01/20 07:04:07;;;;;;;36.30;20.80;;;1.80;99.90;;;;;;5056980;28;20455;-69
2023/01/20 07:06:37;;;;;;;38.60;20.43;;;1.80;99.90;;;;;;5056520;28;20459;-68
2023/01/20 07:09:05;;;;;;;33.03;19.00;;;1.70;99.90;;;;;;5056276;28;20494;-70
2023/01/20 07:11:33;;;;;;;33.77;20.20;;;1.70;99.90;;;;;;5056562;28;20537;-69
2023/01/20 07:14:01;;;;;;;30.47;18.10;;;1.60;99.90;;;;;;5056815;28;20455;-70
2023/01/20 07:16:29;;;;;;;36.27;18.57;;;1.60;99.90;;;;;;5055672;28;20470;-69
2023/01/20 07:18:56;;;;;;;35.80;18.80;;;1.60;99.90;;;;;;5056989;28;20546;-69
2023/01/20 07:21:23;;;;;;;31.97;18.87;;;1.60;99.90;;;;;;5056855;28;20455;-70
2023/01/20 07:23:50;;;;;;;38.17;21.70;;;1.60;99.90;;;;;;5057618;28;20782;-70
2023/01/20 07:26:19;;;;;;;38.60;20.57;;;1.60;99.90;;;;;;5057888;28;20456;-70
2023/01/20 07:28:46;;;;;;;34.27;20.23;;;1.50;99.90;;;;;;5057520;28;20459;-69
2023/01/20 07:31:15;;;;;;;39.13;20.53;;;1.50;99.90;;;;;;5057056;28;20465;-70
2023/01/20 07:33:43;;;;;;;33.40;19.27;;;1.50;99.90;;;;;;5057184;28;20493;-70
2023/01/20 07:36:12;;;;;;;43.60;22.23;;;1.50;99.90;;;;;;5056273;28;20496;-70
2023/01/20 07:38:39;;;;;;;36.03;20.10;;;1.50;99.90;;;;;;5057069;28;20757;-70
2023/01/20 07:41:09;;;;;;;34.90;19.60;;;1.50;99.90;;;;;;5057253;28;20455;-69
2023/01/20 07:43:36;;;;;;;37.03;20.03;;;1.50;99.90;;;;;;5057137;28;20490;-69
2023/01/20 07:46:04;;;;;;;37.73;20.23;;;1.50;99.90;;;;;;5056514;28;20447;-68
2023/01/20 07:48:32;;;;;;;33.60;20.27;;;1.50;99.90;;;;;;5056365;28;20539;-68
2023/01/20 07:51:04;;;;;;;35.70;19.20;;;1.50;99.90;;;;;;5056754;28;20553;-70
2023/01/20 07:53:31;;;;;;;30.33;18.50;;;1.50;99.90;;;;;;5056822;28;20519;-68
2023/01/20 07:56:01;;;;;;;38.37;21.13;;;1.60;99.90;;;;;;5056729;28;20479;-69
2023/01/20 07:58:28;;;;;;;32.97;20.37;;;1.60;99.90;;;;;;5056927;28;20898;-70
2023/01/20 08:00:55;;;;;;;35.77;20.20;;;1.60;99.90;;;;;;5057328;28;20459;-70
2023/01/20 08:03:22;;;;;;;38.60;21.57;;;1.60;99.90;;;;;;5057026;28;20454;-69
2023/01/20 08:05:49;;;;;;;41.53;19.73;;;1.60;99.90;;;;;;5055529;28;20542;-69
2023/01/20 08:08:17;;;;;;;38.27;21.43;;;1.60;99.90;;;;;;5055414;28;20554;-69
2023/01/20 08:10:46;;;;;;;36.93;18.80;;;1.50;99.90;;;;;;5056221;28;20537;-69
2023/01/20 08:13:13;;;;;;;34.40;18.83;;;1.50;99.90;;;;;;5055729;28;20584;-69
2023/01/20 08:15:40;;;;;;;39.80;21.77;;;1.50;99.90;;;;;;5055193;28;21018;-69
2023/01/20 08:18:06;;;;;;;34.57;19.20;;;1.60;99.90;;;;;;5055362;28;20487;-70
2023/01/20 08:20:33;;;;;;;41.73;20.60;;;1.60;99.90;;;;;;5055727;28;20546;-70
2023/01/20 08:23:00;;;;;;;40.10;21.73;;;1.70;99.90;;;;;;5055703;28;20493;-70
2023/01/20 08:25:28;;;;;;;42.10;22.70;;;1.80;99.90;;;;;;5055432;28;20532;-69
2023/01/20 08:27:55;;;;;;;46.57;23.57;;;1.80;99.90;;;;;;5056889;28;20467;-70
2023/01/20 08:30:22;;;;;;;38.40;21.43;;;1.90;99.90;;;;;;5058944;28;20455;-69
2023/01/20 08:32:49;;;;;;;51.30;23.20;;;1.90;99.90;;;;;;5059776;28;20549;-70
2023/01/20 08:35:16;;;;;;;41.30;21.90;;;1.90;99.90;;;;;;5058495;28;20562;-71
2023/01/20 08:37:43;;;;;;;34.60;21.73;;;2.00;99.90;;;;;;5058985;28;20506;-69
2023/01/20 08:40:11;;;;;;;38.83;20.27;;;2.00;99.90;;;;;;5059395;28;20462;-70
2023/01/20 08:42:39;;;;;;;34.73;20.03;;;2.00;99.90;;;;;;5059351;28;20565;-68
2023/01/20 08:45:08;;;;;;;41.10;22.60;;;2.00;99.90;;;;;;5059194;28;20491;-69
2023/01/20 08:47:36;;;;;;;44.50;21.63;;;1.90;99.90;;;;;;5059580;28;20471;-69
2023/01/20 08:50:03;;;;;;;37.30;21.67;;;1.90;99.90;;;;;;5059809;28;20455;-69
2023/01/20 08:52:30;;;;;;;35.53;19.93;;;1.90;99.90;;;;;;5059697;28;20491;-70
2023/01/20 08:54:57;;;;;;;34.57;20.50;;;1.90;99.90;;;;;;5058939;28;20493;-69
2023/01/20 08:57:25;;;;;;;45.73;22.77;;;1.80;99.90;;;;;;5059100;28;20455;-69
2023/01/20 08:59:54;;;;;;;44.27;23.37;;;1.80;99.90;;;;;;5059160;28;20459;-68
2023/01/20 09:02:21;;;;;;;38.17;19.83;;;1.80;99.90;;;;;;5058976;28;20455;-70
2023/01/20 09:04:49;;;;;;;39.67;21.90;;;1.70;99.90;;;;;;5059275;28;20483;-69
2023/01/20 09:07:17;;;;;;;38.20;20.37;;;1.80;99.90;;;;;;5060357;28;20455;-70
2023/01/20 09:09:45;;;;;;;33.40;19.70;;;1.90;99.90;;;;;;5060466;28;20455;-69
2023/01/20 09:12:12;;;;;;;40.83;23.33;;;1.80;99.90;;;;;;5058363;28;20541;-69
2023/01/20 09:14:39;;;;;;;35.70;20.43;;;1.80;99.90;;;;;;5058182;28;20929;-70
2023/01/20 09:17:07;;;;;;;38.20;20.33;;;1.80;99.90;;;;;;5058118;28;20482;-69
2023/01/20 09:19:34;;;;;;;42.27;20.27;;;1.70;99.90;;;;;;5058209;28;20530;-70
2023/01/20 09:22:01;;;;;;;40.40;19.17;;;1.80;99.90;;;;;;5058289;28;20487;-68
2023/01/20 09:24:27;;;;;;;36.70;21.23;;;1.80;99.90;;;;;;5058506;28;20521;-69
2023/01/20 09:26:55;;;;;;;31.53;18.20;;;1.80;99.90;;;;;;5059278;28;20538;-70
2023/01/20 09:29:22;;;;;;;30.13;16.07;;;1.70;99.90;;;;;;5058799;28;20465;-70
2023/01/20 09:31:52;;;;;;;34.50;17.73;;;1.70;99.90;;;;;;5058182;28;20455;-69
2023/01/20 09:34:24;;;;;;;29.70;18.07;;;1.60;99.90;;;;;;5057880;28;20504;-69
2023/01/20 09:36:51;;;;;;;35.03;19.13;;;1.60;99.90;;;;;;5058071;28;20515;-70
2023/01/20 09:45:21;;;;;;;33.73;17.67;;;1.60;99.90;;;;;;5058015;28;20558;-69
2023/01/20 09:47:49;;;;;;;32.63;19.17;;;1.70;99.90;;;;;;5058461;28;20494;-69
2023/01/20 09:53:32;;;;;;;33.10;19.60;;;1.80;99.90;;;;;;5058416;28;20509;-70
2023/01/20 09:56:01;;;;;;;28.70;16.53;;;1.90;99.90;;;;;;5058385;28;20477;-70
2023/01/20 09:58:35;;;;;;;29.50;17.83;;;1.80;99.90;;;;;;5057602;28;20538;-69
2023/01/20 10:01:09;;;;;;;31.43;16.40;;;1.80;99.90;;;;;;5058973;28;20765;-71
2023/01/20 10:03:41;;;;;;;30.77;16.10;;;1.80;99.90;;;;;;5058973;28;20449;-70
2023/01/20 10:06:14;;;;;;;31.27;17.37;;;1.90;99.90;;;;;;5057590;28;20439;-69
2023/01/20 10:08:50;;;;;;;32.93;17.00;;;1.90;99.90;;;;;;5057160;28;20509;-69
2023/01/20 10:11:20;;;;;;;55.40;30.73;;;1.90;99.90;;;;;;5057367;28;20514;-70
2023/01/20 10:13:52;;;;;;;36.23;19.00;;;1.90;99.90;;;;;;5058039;28;20443;-69
2023/01/20 10:16:26;;;;;;;30.23;16.80;;;1.90;99.90;;;;;;5058206;28;20468;-69
2023/01/20 10:18:57;;;;;;;33.40;17.57;;;1.90;99.90;;;;;;5060526;28;20526;-70
2023/01/20 10:21:32;;;;;;;40.97;18.60;;;1.90;99.90;;;;;;5059065;28;20447;-70
2023/01/20 10:24:07;;;;;;;31.43;16.80;;;1.90;99.90;;;;;;5064115;28;20510;-70
2023/01/20 10:26:41;;;;;;;34.57;18.50;;;1.90;99.90;;;;;;5061741;28;20490;-71
2023/01/20 10:29:13;;;;;;;36.70;19.20;;;1.90;99.90;;;;;;5061546;28;20852;-71
2023/01/20 10:31:47;;;;;;;35.40;19.20;;;1.90;99.90;;;;;;5059360;28;20473;-70
2023/01/20 10:34:18;;;;;;;40.57;19.03;;;1.90;99.90;;;;;;5058416;28;20542;-70
2023/01/20 10:36:50;;;;;;;33.80;19.00;;;2.10;99.90;;;;;;5057294;28;20463;-70
2023/01/20 10:39:26;;;;;;;38.17;21.17;;;2.10;99.90;;;;;;5058089;28;20520;-70
2023/01/20 10:41:57;;;;;;;31.63;19.87;;;2.20;99.90;;;;;;5057943;28;20483;-69
2023/01/20 10:44:24;;;;;;;38.30;19.40;;;2.30;99.90;;;;;;5058319;28;20539;-70
2023/01/20 10:47:19;;;;;;;40.30;19.33;;;2.30;99.90;;;;;;5058238;28;20459;-70
2023/01/20 10:50:28;;;;;;;57.97;19.83;;;2.40;99.90;;;;;;5058577;28;20519;-70
2023/01/20 10:53:29;;;;;;;31.93;18.10;;;2.40;99.90;;;;;;4995768;28;20543;-70
2023/01/20 10:56:05;;;;;;;33.43;18.93;;;2.30;99.90;;;;;;5054958;28;20562;-70
2023/01/20 10:58:35;;;;;;;29.10;17.77;;;2.20;99.90;;;;;;5056354;28;20526;-70
2023/01/20 11:01:07;;;;;;;35.87;17.97;;;2.20;99.90;;;;;;5055872;28;20461;-69
2023/01/20 11:03:37;;;;;;;35.97;18.80;;;2.30;99.90;;;;;;5057000;28;20463;-70
2023/01/20 11:06:06;;;;;;;33.60;19.70;;;2.30;99.90;;;;;;5056187;28;20498;-69
2023/01/20 11:08:34;;;;;;;36.47;18.27;;;2.30;99.90;;;;;;5056520;28;20983;-69
2023/01/20 11:11:10;;;;;;;32.70;18.97;;;2.30;99.90;;;;;;5057164;28;20524;-70
2023/01/20 11:13:37;;;;;;;39.70;18.33;;;2.30;99.90;;;;;;5056172;28;20443;-70
2023/01/20 11:16:11;;;;;;;32.50;17.97;;;2.30;99.90;;;;;;5056963;28;20479;-70
2023/01/20 11:18:38;;;;;;;28.20;18.17;;;2.30;99.90;;;;;;5056639;28;20889;-70
2023/01/20 11:21:08;;;;;;;30.30;18.67;;;2.30;99.90;;;;;;5057606;28;20459;-70
2023/01/20 11:23:39;;;;;;;31.83;17.03;;;2.30;99.90;;;;;;5056644;28;20546;-70
2023/01/20 11:26:11;;;;;;;36.70;21.00;;;2.30;99.90;;;;;;5056451;28;20443;-69
2023/01/20 11:28:48;;;;;;;30.33;19.07;;;2.40;99.90;;;;;;5056904;28;20536;-69
2023/01/20 11:31:16;;;;;;;30.57;18.67;;;2.40;99.90;;;;;;5056470;28;20450;-69
2023/01/20 11:33:56;;;;;;;34.67;20.90;;;2.40;99.90;;;;;;5057006;28;20557;-70
2023/01/20 11:36:24;;;;;;;46.60;22.03;;;2.40;99.90;;;;;;5057229;28;20471;-69
2023/01/20 11:38:54;;;;;;;38.10;21.50;;;2.50;99.90;;;;;;5057474;28;20459;-70
2023/01/20 11:41:23;;;;;;;40.03;22.10;;;2.50;99.90;;;;;;5057353;28;20531;-69
2023/01/20 11:43:51;;;;;;;35.00;21.63;;;2.50;99.90;;;;;;5057153;28;20497;-70
2023/01/20 11:46:27;;;;;;;35.80;21.20;;;2.50;99.90;;;;;;5057070;28;20455;-70
2023/01/20 11:49:14;;;;;;;40.80;22.30;;;2.50;99.90;;;;;;5056414;28;20530;-70
2023/01/20 11:51:49;;;;;;;34.07;22.23;;;2.40;99.90;;;;;;5056999;28;20504;-70
2023/01/20 11:54:20;;;;;;;35.77;20.07;;;2.40;99.90;;;;;;5056716;28;20477;-69
2023/01/20 11:56:52;;;;;;;35.80;22.47;;;2.40;99.90;;;;;;5057166;28;20525;-70
2023/01/20 11:59:23;;;;;;;40.37;21.43;;;2.40;99.90;;;;;;5057335;28;20439;-70
2023/01/20 12:01:55;;;;;;;31.73;21.03;;;2.40;99.90;;;;;;5056886;28;20530;-69
2023/01/20 12:04:44;;;;;;;38.60;22.40;;;2.40;99.90;;;;;;5060354;28;20542;-70
2023/01/20 12:07:14;;;;;;;35.60;20.73;;;2.40;99.90;;;;;;5060706;28;20439;-70
2023/01/20 12:09:46;;;;;;;38.70;20.67;;;2.40;99.90;;;;;;5061582;28;20935;-70
2023/01/20 12:12:21;;;;;;;38.27;22.07;;;2.50;99.90;;;;;;5061415;28;20853;-70
2023/01/20 12:14:54;;;;;;;42.20;23.23;;;2.50;99.90;;;;;;5060651;28;20845;-70
2023/01/20 12:17:33;;;;;;;36.17;21.13;;;2.60;99.90;;;;;;5060629;28;20844;-71
2023/01/20 12:20:08;;;;;;;35.30;21.10;;;2.60;99.90;;;;;;5062244;28;20443;-69
2023/01/20 12:22:43;;;;;;;36.27;20.47;;;2.60;99.90;;;;;;5080611;28;20513;-69
2023/01/20 12:25:20;;;;;;;37.20;20.80;;;2.70;99.90;;;;;;5081390;28;20449;-70
2023/01/20 12:27:53;;;;;;;39.53;21.23;;;2.70;99.90;;;;;;5080783;28;20434;-69
2023/01/20 12:30:37;;;;;;;38.57;21.37;;;2.80;99.90;;;;;;5079468;28;21081;-70
2023/01/20 12:33:04;;;;;;;33.67;20.87;;;2.90;99.90;;;;;;5080005;28;20445;-70
2023/01/20 12:35:40;;;;;;;37.23;19.90;;;2.90;99.90;;;;;;5079195;28;20534;-70
2023/01/20 12:38:08;;;;;;;32.63;19.70;;;2.90;99.90;;;;;;5080743;28;20505;-70
2023/01/20 12:40:43;;;;;;;34.70;20.97;;;2.80;99.90;;;;;;5076070;28;20477;-71
2023/01/20 12:43:30;;;;;;;35.63;20.60;;;2.80;99.90;;;;;;5060258;28;20490;-71
2023/01/20 12:46:19;;;;;;;36.00;19.03;;;2.80;99.90;;;;;;5060654;28;20435;-70
2023/01/20 12:48:59;;;;;;;39.53;20.23;;;2.80;99.90;;;;;;5060581;28;20454;-71
2023/01/20 12:51:56;;;;;;;28.70;17.50;;;2.80;99.90;;;;;;5059734;28;20522;-70
2023/01/20 12:54:51;;;;;;;36.27;20.40;;;2.80;99.90;;;;;;5046623;28;20459;-71
2023/01/20 12:57:28;;;;;;;34.33;20.30;;;2.90;99.90;;;;;;5056142;28;20574;-70
2023/01/20 13:00:15;;;;;;;43.10;21.57;;;2.90;99.90;;;;;;5058581;28;20439;-70